sensor_id;sensor_type;location;lat;lon;timestamp;pressure;altitude;pressure_sealevel;temperature;humidity
70314;BME280;57725;47.526;18.986;2022-08-03T00:00:39;99906.78;;;23.94;62.46
70314;BME280;57725;47.526;18.986;2022-08-03T00:03:05;99913.97;;;23.93;62.30
70314;BME280;57725;47.526;18.986;2022-08-03T00:05:33;99902.75;;;23.90;62.58
70314;BME280;57725;47.526;18.986;2022-08-03T00:07:59;99906.25;;;23.90;62.46
70314;BME280;57725;47.526;18.986;2022-08-03T00:10:25;99908.91;;;23.90;62.57
70314;BME280;57725;47.526;18.986;2022-08-03T00:12:51;99909.06;;;23.89;62.45
70314;BME280;57725;47.526;18.986;2022-08-03T00:15:16;99909.91;;;23.89;62.07
70314;BME280;57725;47.526;18.986;2022-08-03T00:17:44;99908.25;;;23.88;62.38
70314;BME280;57725;47.526;18.986;2022-08-03T00:20:10;99905.72;;;23.87;62.11
70314;BME280;57725;47.526;18.986;2022-08-03T00:22:36;99910.22;;;23.86;62.54
70314;BME280;57725;47.526;18.986;2022-08-03T00:25:01;99913.75;;;23.87;62.06
70314;BME280;57725;47.526;18.986;2022-08-03T00:27:29;99911.34;;;23.83;62.37
70314;BME280;57725;47.526;18.986;2022-08-03T00:29:57;99910.50;;;23.83;62.31
70314;BME280;57725;47.526;18.986;2022-08-03T00:32:27;99914.03;;;23.83;62.49
70314;BME280;57725;47.526;18.986;2022-08-03T00:34:55;99920.34;;;23.82;62.51
70314;BME280;57725;47.526;18.986;2022-08-03T00:37:20;99917.69;;;23.82;62.45
70314;BME280;57725;47.526;18.986;2022-08-03T00:39:48;99921.34;;;23.81;62.35
70314;BME280;57725;47.526;18.986;2022-08-03T00:42:16;99929.50;;;23.80;62.24
70314;BME280;57725;47.526;18.986;2022-08-03T00:44:42;99923.31;;;23.79;62.46
70314;BME280;57725;47.526;18.986;2022-08-03T00:47:11;99923.31;;;23.79;62.52
70314;BME280;57725;47.526;18.986;2022-08-03T00:49:40;99925.13;;;23.79;62.60
70314;BME280;57725;47.526;18.986;2022-08-03T00:52:08;99923.31;;;23.79;62.40
70314;BME280;57725;47.526;18.986;2022-08-03T00:54:36;99919.94;;;23.77;62.46
70314;BME280;57725;47.526;18.986;2022-08-03T00:57:02;99926.31;;;23.76;62.43
70314;BME280;57725;47.526;18.986;2022-08-03T00:59:29;99925.59;;;23.74;62.31
70314;BME280;57725;47.526;18.986;2022-08-03T01:01:57;99922.25;;;23.72;62.33
70314;BME280;57725;47.526;18.986;2022-08-03T01:04:23;99923.06;;;23.73;62.56
70314;BME280;57725;47.526;18.986;2022-08-03T01:06:54;99920.56;;;23.71;62.48
70314;BME280;57725;47.526;18.986;2022-08-03T01:09:42;99925.88;;;23.71;62.63
70314;BME280;57725;47.526;18.986;2022-08-03T01:12:14;99931.22;;;23.71;62.47
70314;BME280;57725;47.526;18.986;2022-08-03T01:14:46;99928.72;;;23.70;62.53
70314;BME280;57725;47.526;18.986;2022-08-03T01:20:13;99930.53;;;23.69;62.43
70314;BME280;57725;47.526;18.986;2022-08-03T01:25:30;99935.16;;;23.67;62.80
70314;BME280;57725;47.526;18.986;2022-08-03T01:31:06;99937.84;;;23.67;62.65
70314;BME280;57725;47.526;18.986;2022-08-03T01:33:37;99932.66;;;23.66;62.67
70314;BME280;57725;47.526;18.986;2022-08-03T01:36:08;99930.81;;;23.66;62.44
70314;BME280;57725;47.526;18.986;2022-08-03T01:38:51;99936.34;;;23.65;62.84
70314;BME280;57725;47.526;18.986;2022-08-03T01:41:28;99934.66;;;23.64;62.45
70314;BME280;57725;47.526;18.986;2022-08-03T01:43:57;99934.66;;;23.64;62.50
70314;BME280;57725;47.526;18.986;2022-08-03T01:46:24;99939.16;;;23.63;62.75
70314;BME280;57725;47.526;18.986;2022-08-03T01:48:50;99931.28;;;23.62;62.47
70314;BME280;57725;47.526;18.986;2022-08-03T01:51:19;99932.25;;;23.61;62.62
70314;BME280;57725;47.526;18.986;2022-08-03T01:53:47;99929.75;;;23.59;62.63
70314;BME280;57725;47.526;18.986;2022-08-03T01:56:15;99928.75;;;23.60;62.76
70314;BME280;57725;47.526;18.986;2022-08-03T01:58:45;99935.91;;;23.60;62.79
70314;BME280;57725;47.526;18.986;2022-08-03T02:01:12;99929.88;;;23.58;62.62
70314;BME280;57725;47.526;18.986;2022-08-03T02:03:41;99929.31;;;23.54;62.92
70314;BME280;57725;47.526;18.986;2022-08-03T02:06:11;99919.50;;;23.55;62.74
70314;BME280;57725;47.526;18.986;2022-08-03T02:08:39;99927.34;;;23.56;62.84
70314;BME280;57725;47.526;18.986;2022-08-03T02:11:08;99929.31;;;23.54;62.67
70314;BME280;57725;47.526;18.986;2022-08-03T02:13:37;99924.00;;;23.54;62.85
70314;BME280;57725;47.526;18.986;2022-08-03T02:16:06;99931.00;;;23.55;62.87
70314;BME280;57725;47.526;18.986;2022-08-03T02:18:32;99930.34;;;23.53;62.87
70314;BME280;57725;47.526;18.986;2022-08-03T02:21:02;99935.50;;;23.55;62.64
70314;BME280;57725;47.526;18.986;2022-08-03T02:23:29;99929.50;;;23.53;62.89
70314;BME280;57725;47.526;18.986;2022-08-03T02:26:00;99926.00;;;23.52;62.87
70314;BME280;57725;47.526;18.986;2022-08-03T02:28:31;99934.84;;;23.53;62.87
70314;BME280;57725;47.526;18.986;2022-08-03T02:31:02;99929.75;;;23.50;62.84
70314;BME280;57725;47.526;18.986;2022-08-03T02:33:37;99936.91;;;23.49;62.88
70314;BME280;57725;47.526;18.986;2022-08-03T02:36:09;99931.56;;;23.49;62.82
70314;BME280;57725;47.526;18.986;2022-08-03T02:38:40;99933.41;;;23.48;62.76
70314;BME280;57725;47.526;18.986;2022-08-03T02:41:10;99927.66;;;23.43;62.87
70314;BME280;57725;47.526;18.986;2022-08-03T02:43:42;99926.53;;;23.46;62.97
70314;BME280;57725;47.526;18.986;2022-08-03T02:46:12;99924.00;;;23.44;62.95
70314;BME280;57725;47.526;18.986;2022-08-03T02:48:39;99927.66;;;23.43;63.13
70314;BME280;57725;47.526;18.986;2022-08-03T02:51:06;99929.47;;;23.43;63.02
70314;BME280;57725;47.526;18.986;2022-08-03T02:53:35;99928.50;;;23.44;62.91
70314;BME280;57725;47.526;18.986;2022-08-03T02:56:01;99940.16;;;23.43;62.95
70314;BME280;57725;47.526;18.986;2022-08-03T02:58:28;99930.63;;;23.40;62.92
70314;BME280;57725;47.526;18.986;2022-08-03T03:00:58;99932.31;;;23.41;63.06
70314;BME280;57725;47.526;18.986;2022-08-03T03:03:24;99930.78;;;23.39;62.92
70314;BME280;57725;47.526;18.986;2022-08-03T03:05:50;99934.44;;;23.38;62.83
70314;BME280;57725;47.526;18.986;2022-08-03T03:08:18;99936.94;;;23.39;63.20
70314;BME280;57725;47.526;18.986;2022-08-03T03:10:45;99928.09;;;23.39;63.23
70314;BME280;57725;47.526;18.986;2022-08-03T03:13:12;99926.56;;;23.36;63.17
70314;BME280;57725;47.526;18.986;2022-08-03T03:15:43;99936.53;;;23.34;63.10
70314;BME280;57725;47.526;18.986;2022-08-03T03:18:09;99927.69;;;23.34;63.16
70314;BME280;57725;47.526;18.986;2022-08-03T03:20:36;99933.88;;;23.34;63.12
70314;BME280;57725;47.526;18.986;2022-08-03T03:23:04;99931.19;;;23.34;63.11
70314;BME280;57725;47.526;18.986;2022-08-03T03:25:30;99933.03;;;23.34;63.16
70314;BME280;57725;47.526;18.986;2022-08-03T03:27:59;99935.69;;;23.34;63.25
70314;BME280;57725;47.526;18.986;2022-08-03T03:30:25;99935.84;;;23.32;63.23
70314;BME280;57725;47.526;18.986;2022-08-03T03:32:51;99937.66;;;23.32;63.20
70314;BME280;57725;47.526;18.986;2022-08-03T03:35:17;99930.66;;;23.31;63.14
70314;BME280;57725;47.526;18.986;2022-08-03T03:37:42;99929.13;;;23.28;63.35
70314;BME280;57725;47.526;18.986;2022-08-03T03:40:08;99938.97;;;23.28;63.17
70314;BME280;57725;47.526;18.986;2022-08-03T03:42:36;99938.13;;;23.27;63.23
70314;BME280;57725;47.526;18.986;2022-08-03T03:45:06;99932.78;;;23.27;63.32
70314;BME280;57725;47.526;18.986;2022-08-03T03:47:34;99938.13;;;23.27;63.36
70314;BME280;57725;47.526;18.986;2022-08-03T03:50:04;99937.28;;;23.27;63.08
70314;BME280;57725;47.526;18.986;2022-08-03T03:52:33;99929.41;;;23.25;63.40
70314;BME280;57725;47.526;18.986;2022-08-03T03:55:00;99939.09;;;23.26;63.40
70314;BME280;57725;47.526;18.986;2022-08-03T03:57:26;99938.41;;;23.24;63.38
70314;BME280;57725;47.526;18.986;2022-08-03T03:59:52;99946.53;;;23.23;63.37
70314;BME280;57725;47.526;18.986;2022-08-03T04:02:17;99937.84;;;23.21;63.32
70314;BME280;57725;47.526;18.986;2022-08-03T04:04:42;99949.22;;;23.23;63.47
70314;BME280;57725;47.526;18.986;2022-08-03T04:07:26;99945.69;;;23.22;63.51
70314;BME280;57725;47.526;18.986;2022-08-03T04:10:21;99947.66;;;23.20;63.35
70314;BME280;57725;47.526;18.986;2022-08-03T04:13:08;99953.84;;;23.21;63.49
70314;BME280;57725;47.526;18.986;2022-08-03T04:15:38;99955.00;;;23.18;63.52
70314;BME280;57725;47.526;18.986;2022-08-03T04:18:07;99962.16;;;23.18;63.31
70314;BME280;57725;47.526;18.986;2022-08-03T04:20:37;99957.78;;;23.17;63.58
70314;BME280;57725;47.526;18.986;2022-08-03T04:23:05;99957.78;;;23.17;63.60
70314;BME280;57725;47.526;18.986;2022-08-03T04:25:32;99961.44;;;23.16;63.49
70314;BME280;57725;47.526;18.986;2022-08-03T04:28:02;99968.59;;;23.15;63.60
70314;BME280;57725;47.526;18.986;2022-08-03T04:30:30;99967.91;;;23.13;63.57
70314;BME280;57725;47.526;18.986;2022-08-03T04:32:58;99963.28;;;23.15;63.64
70314;BME280;57725;47.526;18.986;2022-08-03T04:40:30;99975.19;;;23.11;63.65
70314;BME280;57725;47.526;18.986;2022-08-03T04:42:57;99964.66;;;23.09;63.81
70314;BME280;57725;47.526;18.986;2022-08-03T04:45:23;99963.81;;;23.09;63.74
70314;BME280;57725;47.526;18.986;2022-08-03T04:47:52;99973.50;;;23.10;63.67
70314;BME280;57725;47.526;18.986;2022-08-03T04:50:18;99970.13;;;23.08;63.97
70314;BME280;57725;47.526;18.986;2022-08-03T04:52:44;99981.50;;;23.10;63.90
70314;BME280;57725;47.526;18.986;2022-08-03T04:55:10;99981.81;;;23.07;63.78
70314;BME280;57725;47.526;18.986;2022-08-03T04:57:35;99981.97;;;23.05;63.98
70314;BME280;57725;47.526;18.986;2022-08-03T05:00:01;99986.13;;;23.08;64.09
70314;BME280;57725;47.526;18.986;2022-08-03T05:02:30;99980.13;;;23.06;63.91
70314;BME280;57725;47.526;18.986;2022-08-03T05:04:56;99991.47;;;23.08;63.81
70314;BME280;57725;47.526;18.986;2022-08-03T05:07:26;99989.13;;;23.05;63.95
70314;BME280;57725;47.526;18.986;2022-08-03T05:09:51;99996.28;;;23.04;64.08
70314;BME280;57725;47.526;18.986;2022-08-03T05:12:19;99990.22;;;23.02;63.79
70314;BME280;57725;47.526;18.986;2022-08-03T05:14:44;99994.59;;;23.03;63.94
70314;BME280;57725;47.526;18.986;2022-08-03T05:17:10;99996.41;;;23.03;64.16
70314;BME280;57725;47.526;18.986;2022-08-03T05:19:35;100001.59;;;23.04;63.98
70314;BME280;57725;47.526;18.986;2022-08-03T05:22:05;99996.53;;;23.01;64.16
70314;BME280;57725;47.526;18.986;2022-08-03T05:24:35;100001.16;;;22.99;64.20
70314;BME280;57725;47.526;18.986;2022-08-03T05:27:00;99997.78;;;22.97;64.37
70314;BME280;57725;47.526;18.986;2022-08-03T05:29:28;100002.28;;;22.97;64.18
70314;BME280;57725;47.526;18.986;2022-08-03T05:31:54;100000.47;;;22.97;64.23
70314;BME280;57725;47.526;18.986;2022-08-03T05:34:22;99998.78;;;22.96;64.34
70314;BME280;57725;47.526;18.986;2022-08-03T05:36:48;100007.78;;;22.95;64.47
70314;BME280;57725;47.526;18.986;2022-08-03T05:39:16;100000.78;;;22.94;64.49
70314;BME280;57725;47.526;18.986;2022-08-03T05:41:43;100006.78;;;22.96;64.28
70314;BME280;57725;47.526;18.986;2022-08-03T05:44:09;100013.41;;;22.92;64.47
70314;BME280;57725;47.526;18.986;2022-08-03T05:46:34;100008.91;;;22.93;64.69
70314;BME280;57725;47.526;18.986;2022-08-03T05:49:04;100007.94;;;22.94;64.61
70314;BME280;57725;47.526;18.986;2022-08-03T05:51:29;100013.41;;;22.92;64.73
70314;BME280;57725;47.526;18.986;2022-08-03T05:53:57;100015.22;;;22.92;64.68
70314;BME280;57725;47.526;18.986;2022-08-03T05:56:25;100010.88;;;22.91;64.89
70314;BME280;57725;47.526;18.986;2022-08-03T05:58:51;100011.72;;;22.91;64.94
70314;BME280;57725;47.526;18.986;2022-08-03T06:01:19;100017.19;;;22.90;64.90
70314;BME280;57725;47.526;18.986;2022-08-03T06:03:50;100016.19;;;22.91;64.80
70314;BME280;57725;47.526;18.986;2022-08-03T06:06:17;100018.03;;;22.90;64.89
70314;BME280;57725;47.526;18.986;2022-08-03T06:08:43;100017.88;;;22.92;64.81
70314;BME280;57725;47.526;18.986;2022-08-03T06:11:12;100018.59;;;22.94;65.02
70314;BME280;57725;47.526;18.986;2022-08-03T06:13:41;100023.91;;;22.94;64.89
70314;BME280;57725;47.526;18.986;2022-08-03T06:16:07;100025.59;;;22.95;64.92
70314;BME280;57725;47.526;18.986;2022-08-03T06:18:33;100027.44;;;22.94;64.91
70314;BME280;57725;47.526;18.986;2022-08-03T06:21:02;100014.38;;;22.91;64.94
70314;BME280;57725;47.526;18.986;2022-08-03T06:23:30;100020.09;;;22.96;64.86
70314;BME280;57725;47.526;18.986;2022-08-03T06:25:57;100019.56;;;23.02;64.88
70314;BME280;57725;47.526;18.986;2022-08-03T06:28:25;100024.47;;;23.07;64.82
70314;BME280;57725;47.526;18.986;2022-08-03T06:30:53;100031.75;;;23.15;64.85
70314;BME280;57725;47.526;18.986;2022-08-03T06:33:20;100035.00;;;23.18;65.20
70314;BME280;57725;47.526;18.986;2022-08-03T06:35:48;100031.03;;;23.22;65.19
70314;BME280;57725;47.526;18.986;2022-08-03T06:38:18;100036.94;;;23.26;65.21
70314;BME280;57725;47.526;18.986;2022-08-03T06:40:46;100032.31;;;23.28;65.26
70314;BME280;57725;47.526;18.986;2022-08-03T06:43:16;100032.84;;;23.31;65.52
70314;BME280;57725;47.526;18.986;2022-08-03T06:45:43;100038.88;;;23.33;65.89
70314;BME280;57725;47.526;18.986;2022-08-03T06:48:11;100038.59;;;23.36;65.90
70314;BME280;57725;47.526;18.986;2022-08-03T06:50:41;100036.63;;;23.38;65.77
70314;BME280;57725;47.526;18.986;2022-08-03T06:53:08;100042.81;;;23.39;65.84
70314;BME280;57725;47.526;18.986;2022-08-03T06:55:34;100038.00;;;23.42;65.81
70314;BME280;57725;47.526;18.986;2022-08-03T06:57:59;100046.88;;;23.43;66.01
70314;BME280;57725;47.526;18.986;2022-08-03T07:00:25;100043.34;;;23.42;66.19
70314;BME280;57725;47.526;18.986;2022-08-03T07:02:51;100047.56;;;23.45;66.02
70314;BME280;57725;47.526;18.986;2022-08-03T07:05:16;100043.91;;;23.46;65.98
70314;BME280;57725;47.526;18.986;2022-08-03T07:07:44;100045.59;;;23.47;66.09
70314;BME280;57725;47.526;18.986;2022-08-03T07:10:10;100042.78;;;23.48;66.14
70314;BME280;57725;47.526;18.986;2022-08-03T07:12:36;100045.47;;;23.48;66.15
70314;BME280;57725;47.526;18.986;2022-08-03T07:15:04;100040.13;;;23.48;66.01
70314;BME280;57725;47.526;18.986;2022-08-03T07:17:34;100047.28;;;23.48;66.31
70314;BME280;57725;47.526;18.986;2022-08-03T07:20:05;100042.78;;;23.48;66.22
70314;BME280;57725;47.526;18.986;2022-08-03T07:22:31;100047.28;;;23.48;66.16
70314;BME280;57725;47.526;18.986;2022-08-03T07:25:04;100049.97;;;23.48;66.21
70314;BME280;57725;47.526;18.986;2022-08-03T07:27:29;100050.81;;;23.48;66.18
70314;BME280;57725;47.526;18.986;2022-08-03T07:29:58;100045.59;;;23.47;66.07
70314;BME280;57725;47.526;18.986;2022-08-03T07:32:24;100041.09;;;23.47;66.15
70314;BME280;57725;47.526;18.986;2022-08-03T07:34:49;100035.91;;;23.46;66.25
70314;BME280;57725;47.526;18.986;2022-08-03T07:37:15;100045.59;;;23.47;66.05
70314;BME280;57725;47.526;18.986;2022-08-03T07:39:42;100035.06;;;23.45;65.90
70314;BME280;57725;47.526;18.986;2022-08-03T07:42:08;100041.38;;;23.44;65.93
70314;BME280;57725;47.526;18.986;2022-08-03T07:44:34;100037.75;;;23.45;65.87
70314;BME280;57725;47.526;18.986;2022-08-03T07:47:03;100039.69;;;23.43;65.83
70314;BME280;57725;47.526;18.986;2022-08-03T07:49:28;100035.22;;;23.44;65.83
70314;BME280;57725;47.526;18.986;2022-08-03T07:51:54;100031.03;;;23.41;65.94
70314;BME280;57725;47.526;18.986;2022-08-03T07:54:40;100035.34;;;23.42;65.80
70314;BME280;57725;47.526;18.986;2022-08-03T07:57:08;100033.53;;;23.43;65.78
70314;BME280;57725;47.526;18.986;2022-08-03T07:59:34;100038.00;;;23.42;65.62
70314;BME280;57725;47.526;18.986;2022-08-03T08:02:04;100032.69;;;23.42;65.87
70314;BME280;57725;47.526;18.986;2022-08-03T08:04:29;100034.53;;;23.42;65.97
70314;BME280;57725;47.526;18.986;2022-08-03T08:06:55;100034.38;;;23.43;65.68
70314;BME280;57725;47.526;18.986;2022-08-03T08:09:20;100037.03;;;23.43;65.64
70314;BME280;57725;47.526;18.986;2022-08-03T08:11:48;100035.34;;;23.42;65.53
70314;BME280;57725;47.526;18.986;2022-08-03T08:14:14;100034.22;;;23.45;65.46
70314;BME280;57725;47.526;18.986;2022-08-03T08:16:39;100028.38;;;23.41;65.55
70314;BME280;57725;47.526;18.986;2022-08-03T08:19:05;100035.91;;;23.46;65.43
70314;BME280;57725;47.526;18.986;2022-08-03T08:21:30;100037.59;;;23.47;65.58
70314;BME280;57725;47.526;18.986;2022-08-03T08:23:55;100041.09;;;23.47;65.63
70314;BME280;57725;47.526;18.986;2022-08-03T08:26:21;100031.28;;;23.48;65.54
70314;BME280;57725;47.526;18.986;2022-08-03T08:28:48;100037.47;;;23.48;65.32
70314;BME280;57725;47.526;18.986;2022-08-03T08:31:17;100032.84;;;23.51;65.37
70314;BME280;57725;47.526;18.986;2022-08-03T08:33:42;100038.19;;;23.51;65.29
70314;BME280;57725;47.526;18.986;2022-08-03T08:36:10;100030.06;;;23.52;65.32
70314;BME280;57725;47.526;18.986;2022-08-03T08:38:38;100028.06;;;23.54;65.17
70314;BME280;57725;47.526;18.986;2022-08-03T08:41:07;100030.72;;;23.54;65.21
70314;BME280;57725;47.526;18.986;2022-08-03T08:43:33;100030.72;;;23.54;65.20
70314;BME280;57725;47.526;18.986;2022-08-03T08:45:58;100031.56;;;23.55;65.20
70314;BME280;57725;47.526;18.986;2022-08-03T08:48:24;100028.75;;;23.56;65.18
70314;BME280;57725;47.526;18.986;2022-08-03T08:50:55;100021.59;;;23.57;65.16
70314;BME280;57725;47.526;18.986;2022-08-03T08:53:22;100022.28;;;23.59;65.02
70314;BME280;57725;47.526;18.986;2022-08-03T08:55:50;100026.66;;;23.60;65.04
70314;BME280;57725;47.526;18.986;2022-08-03T08:58:20;100024.81;;;23.60;64.90
70314;BME280;57725;47.526;18.986;2022-08-03T09:00:47;100026.50;;;23.61;64.91
70314;BME280;57725;47.526;18.986;2022-08-03T09:03:15;100022.84;;;23.62;64.88
70314;BME280;57725;47.526;18.986;2022-08-03T09:05:42;100022.72;;;23.64;64.74
70314;BME280;57725;47.526;18.986;2022-08-03T09:08:08;100021.03;;;23.63;64.98
70314;BME280;57725;47.526;18.986;2022-08-03T09:10:33;100016.22;;;23.66;64.95
70314;BME280;57725;47.526;18.986;2022-08-03T09:13:03;100015.22;;;23.67;64.80
70314;BME280;57725;47.526;18.986;2022-08-03T09:15:30;100018.75;;;23.68;64.53
